Time;durP1;ratioP1;P1;durP2;ratioP2;P2;SDS_P1;SDS_P2;PMS_P1;PMS_P2;Temp;Humidity;BMP_temperature;BMP_pressure;BME280_temperature;BME280_humidity;BME280_pressure;Samples;Min_cycle;Max_cycle;Signal;HPM_P1;HPM_P2
2021/09/19 00:00:06;;;;;;;5.70;3.07;;;14.90;99.90;;;;;;5036858;28;20500;-48
2021/09/19 00:02:33;;;;;;;2.50;2.07;;;14.90;99.90;;;;;;5037265;28;20463;-45
2021/09/19 00:05:00;;;;;;;3.30;2.53;;;14.90;99.90;;;;;;5037251;28;20863;-49
2021/09/19 00:07:26;;;;;;;3.40;2.53;;;14.90;99.90;;;;;;5037364;28;20521;-46
2021/09/19 00:09:53;;;;;;;3.77;2.70;;;14.90;99.90;;;;;;5036675;28;20456;-47
2021/09/19 00:12:20;;;;;;;3.07;2.63;;;14.80;99.90;;;;;;5037041;28;20530;-49
2021/09/19 00:14:47;;;;;;;6.03;2.90;;;14.80;99.90;;;;;;5036936;28;20517;-48
2021/09/19 00:17:17;;;;;;;3.53;3.10;;;14.80;99.90;;;;;;5036932;28;20452;-46
2021/09/19 00:19:43;;;;;;;2.60;2.37;;;14.80;99.90;;;;;;5037297;28;20480;-45
2021/09/19 00:22:10;;;;;;;3.70;2.90;;;14.80;99.90;;;;;;5036945;28;20455;-48
2021/09/19 00:24:37;;;;;;;3.03;2.50;;;14.80;99.90;;;;;;5036649;28;20510;-46
2021/09/19 00:27:04;;;;;;;3.00;2.47;;;14.80;99.90;;;;;;5036855;28;20468;-46
2021/09/19 00:29:31;;;;;;;6.03;2.70;;;14.80;99.90;;;;;;5036607;28;20448;-48
2021/09/19 00:31:59;;;;;;;3.80;2.93;;;14.80;99.90;;;;;;5036804;28;20905;-46
2021/09/19 00:34:27;;;;;;;2.90;2.33;;;14.80;99.90;;;;;;5036468;28;20460;-49
2021/09/19 00:36:54;;;;;;;3.30;2.50;;;14.80;99.90;;;;;;5036477;28;20514;-50
2021/09/19 00:39:21;;;;;;;3.63;2.60;;;14.70;99.90;;;;;;5036331;28;20511;-46
2021/09/19 00:41:47;;;;;;;2.67;2.17;;;14.70;99.90;;;;;;5036648;28;20505;-46
2021/09/19 00:44:14;;;;;;;4.10;3.03;;;14.70;99.90;;;;;;5036611;28;20455;-47
2021/09/19 00:46:41;;;;;;;5.67;3.07;;;14.70;99.90;;;;;;5036377;28;20510;-44
2021/09/19 00:49:07;;;;;;;5.00;2.27;;;14.70;99.90;;;;;;5036268;28;20444;-49
2021/09/19 00:51:36;;;;;;;4.43;2.40;;;14.70;99.90;;;;;;5036424;28;20518;-55
2021/09/19 00:54:07;;;;;;;5.37;3.80;;;14.70;99.90;;;;;;5036358;28;20513;-47
2021/09/19 00:56:34;;;;;;;4.30;2.17;;;14.70;99.90;;;;;;5036536;28;20448;-45
2021/09/19 00:59:01;;;;;;;4.07;2.50;;;14.60;99.90;;;;;;5036231;28;20888;-47
2021/09/19 01:01:29;;;;;;;5.03;3.50;;;14.70;99.90;;;;;;5036357;28;20849;-46
2021/09/19 01:03:57;;;;;;;6.10;3.47;;;14.70;99.90;;;;;;5036216;28;20449;-47
2021/09/19 01:06:23;;;;;;;4.03;2.73;;;14.70;99.90;;;;;;5036225;28;20451;-44
2021/09/19 01:08:55;;;;;;;3.80;2.70;;;14.70;99.90;;;;;;5036086;28;20448;-51
2021/09/19 01:11:21;;;;;;;3.00;2.30;;;14.70;99.90;;;;;;5035981;28;20828;-49
2021/09/19 01:13:50;;;;;;;4.30;2.80;;;14.60;99.90;;;;;;5035935;28;20454;-49
2021/09/19 01:16:19;;;;;;;6.77;3.07;;;14.60;99.90;;;;;;5035693;28;20506;-48
2021/09/19 01:18:47;;;;;;;4.77;2.90;;;14.60;99.90;;;;;;5035952;28;20467;-48
2021/09/19 01:21:17;;;;;;;2.20;1.93;;;14.60;99.90;;;;;;5034954;28;21122;-46
2021/09/19 01:23:57;;;;;;;7.93;2.90;;;14.60;99.90;;;;;;5035488;28;20606;-48
2021/09/19 01:26:28;;;;;;;3.30;3.00;;;14.60;99.90;;;;;;5035623;28;20448;-47
2021/09/19 01:28:55;;;;;;;5.03;2.50;;;14.60;99.90;;;;;;5035567;28;20494;-47
2021/09/19 01:31:22;;;;;;;5.43;3.10;;;14.60;99.90;;;;;;5035603;28;20463;-45
2021/09/19 01:33:50;;;;;;;3.27;2.70;;;14.60;99.90;;;;;;5035677;28;20468;-48
2021/09/19 01:36:20;;;;;;;2.83;2.40;;;14.60;99.90;;;;;;5035562;28;20449;-45
2021/09/19 01:38:47;;;;;;;5.17;3.17;;;14.60;99.90;;;;;;5035477;28;20506;-44
2021/09/19 01:41:18;;;;;;;4.37;2.80;;;14.60;99.90;;;;;;5035279;28;20565;-49
2021/09/19 01:43:44;;;;;;;4.30;3.00;;;14.50;99.90;;;;;;5035498;28;20526;-48
2021/09/19 01:46:11;;;;;;;3.80;2.60;;;14.50;99.90;;;;;;5035365;28;20455;-48
2021/09/19 01:48:38;;;;;;;4.53;2.67;;;14.50;99.90;;;;;;5034975;28;20448;-44
2021/09/19 01:51:06;;;;;;;4.30;3.40;;;14.50;99.90;;;;;;5035058;28;20905;-49
2021/09/19 01:53:33;;;;;;;3.77;2.90;;;14.50;99.90;;;;;;5035073;28;20501;-44
2021/09/19 01:56:00;;;;;;;4.60;2.70;;;14.50;99.90;;;;;;5035303;28;20838;-52
2021/09/19 01:58:28;;;;;;;3.83;2.80;;;14.50;99.90;;;;;;5034878;28;20472;-47
2021/09/19 02:00:55;;;;;;;5.30;3.17;;;14.50;99.90;;;;;;5034731;28;21007;-49
2021/09/19 02:03:24;;;;;;;5.80;2.97;;;14.50;99.90;;;;;;5034760;28;20914;-46
2021/09/19 02:05:51;;;;;;;4.53;3.67;;;14.50;99.90;;;;;;5034920;28;20448;-51
2021/09/19 02:08:17;;;;;;;3.80;2.80;;;14.50;99.90;;;;;;5035198;28;20452;-51
2021/09/19 02:10:45;;;;;;;6.40;2.57;;;14.50;99.90;;;;;;5034830;28;20444;-47
2021/09/19 02:13:12;;;;;;;7.87;4.60;;;14.50;99.90;;;;;;5024668;28;20452;-46
2021/09/19 02:15:40;;;;;;;4.50;2.63;;;14.50;99.90;;;;;;5023382;28;20503;-48
2021/09/19 02:18:07;;;;;;;3.83;2.83;;;14.50;99.90;;;;;;5026483;28;20461;-47
2021/09/19 02:20:33;;;;;;;6.40;3.27;;;14.50;99.90;;;;;;5019619;28;20977;-43
2021/09/19 02:23:00;;;;;;;4.27;3.23;;;14.50;99.90;;;;;;5025068;28;20447;-49
2021/09/19 02:25:27;;;;;;;4.60;2.87;;;14.50;99.90;;;;;;5024463;28;20452;-43
2021/09/19 02:27:53;;;;;;;4.17;2.53;;;14.40;99.90;;;;;;5025188;28;20514;-47
2021/09/19 02:30:20;;;;;;;5.70;3.00;;;14.50;99.90;;;;;;5029986;28;20425;-43
2021/09/19 02:32:48;;;;;;;4.23;3.27;;;14.50;99.90;;;;;;5031483;28;20503;-50
2021/09/19 02:35:18;;;;;;;2.63;2.03;;;14.50;99.90;;;;;;5021452;28;20433;-46
2021/09/19 02:37:47;;;;;;;11.60;3.63;;;14.50;99.90;;;;;;5017408;28;20445;-48
2021/09/19 02:40:14;;;;;;;3.30;2.70;;;14.50;99.90;;;;;;5017883;28;20495;-47
2021/09/19 02:42:42;;;;;;;3.80;3.03;;;14.50;99.90;;;;;;5017800;28;20491;-50
2021/09/19 02:45:10;;;;;;;5.13;2.90;;;14.50;99.90;;;;;;5018181;28;20511;-43
2021/09/19 02:47:37;;;;;;;5.80;3.30;;;14.50;99.90;;;;;;5017717;28;20441;-50
2021/09/19 02:50:08;;;;;;;3.73;2.43;;;14.50;99.90;;;;;;5017826;28;20918;-46
2021/09/19 02:52:35;;;;;;;3.30;2.37;;;14.40;99.90;;;;;;5017713;28;20449;-46
2021/09/19 02:55:02;;;;;;;3.70;2.33;;;14.40;99.90;;;;;;5017706;28;20961;-44
2021/09/19 02:57:28;;;;;;;9.50;2.87;;;14.40;99.90;;;;;;5017843;28;20516;-43
2021/09/19 02:59:55;;;;;;;3.80;3.40;;;14.40;99.90;;;;;;5017664;28;20488;-45
2021/09/19 03:02:22;;;;;;;5.67;3.03;;;14.40;99.90;;;;;;5018398;28;20448;-45
2021/09/19 03:04:48;;;;;;;3.30;2.37;;;14.40;99.90;;;;;;5017912;28;20449;-43
2021/09/19 03:07:16;;;;;;;3.20;2.90;;;14.40;99.90;;;;;;5017938;28;21174;-46
2021/09/19 03:09:43;;;;;;;3.53;2.97;;;14.40;99.90;;;;;;5017820;28;20484;-44
2021/09/19 03:12:10;;;;;;;4.30;3.30;;;14.40;99.90;;;;;;5018649;28;20441;-45
2021/09/19 03:14:36;;;;;;;4.33;2.33;;;14.30;99.90;;;;;;5018351;28;20480;-51
2021/09/19 03:17:03;;;;;;;4.27;2.77;;;14.30;99.90;;;;;;5018063;28;20457;-49
2021/09/19 03:19:30;;;;;;;4.63;3.27;;;14.30;99.90;;;;;;5018030;28;20449;-49
2021/09/19 03:21:57;;;;;;;4.47;2.90;;;14.30;99.90;;;;;;5017569;28;20797;-49
2021/09/19 03:24:25;;;;;;;3.37;2.90;;;14.30;99.90;;;;;;5017991;28;20515;-46
2021/09/19 03:26:51;;;;;;;3.40;2.50;;;14.30;99.90;;;;;;5018675;28;20499;-47
2021/09/19 03:29:19;;;;;;;2.80;2.30;;;14.30;99.90;;;;;;5017467;28;20449;-51
2021/09/19 03:31:47;;;;;;;4.00;2.63;;;14.30;99.90;;;;;;5017331;28;20496;-46
2021/09/19 03:34:14;;;;;;;2.90;2.23;;;14.30;99.90;;;;;;5017845;28;20453;-49
2021/09/19 03:36:42;;;;;;;2.97;2.03;;;14.30;99.90;;;;;;5018055;28;20441;-50
2021/09/19 03:39:09;;;;;;;4.63;2.30;;;14.30;99.90;;;;;;5017734;28;20467;-43
2021/09/19 03:41:37;;;;;;;6.60;2.43;;;14.30;99.90;;;;;;5018220;28;20485;-49
2021/09/19 03:44:06;;;;;;;5.53;2.90;;;14.30;99.90;;;;;;5017800;28;20521;-50
2021/09/19 03:46:32;;;;;;;4.43;2.70;;;14.30;99.90;;;;;;5020670;28;20484;-46
2021/09/19 03:48:59;;;;;;;4.20;2.60;;;14.30;99.90;;;;;;5021651;28;20523;-48
2021/09/19 03:51:26;;;;;;;2.87;2.33;;;14.30;99.90;;;;;;5022160;28;20510;-44
2021/09/19 03:53:53;;;;;;;4.17;2.80;;;14.30;99.90;;;;;;5022248;28;20829;-48
2021/09/19 03:56:20;;;;;;;4.13;2.67;;;14.20;99.90;;;;;;5021248;28;20922;-47
2021/09/19 03:58:48;;;;;;;5.30;2.30;;;14.20;99.90;;;;;;5020858;28;20559;-50
2021/09/19 04:01:15;;;;;;;3.10;2.67;;;14.20;99.90;;;;;;5021620;28;20520;-44
2021/09/19 04:03:45;;;;;;;5.37;2.60;;;14.20;99.90;;;;;;5021248;28;20535;-46
2021/09/19 04:06:14;;;;;;;4.83;3.13;;;14.20;99.90;;;;;;5021680;28;20457;-49
2021/09/19 04:08:40;;;;;;;5.40;2.67;;;14.20;99.90;;;;;;5021321;28;20526;-47
2021/09/19 04:11:07;;;;;;;3.77;2.60;;;14.20;99.90;;;;;;5021104;28;20445;-44
2021/09/19 04:13:34;;;;;;;2.37;1.80;;;14.20;99.90;;;;;;5020685;28;20449;-49
2021/09/19 04:16:02;;;;;;;2.73;2.43;;;14.20;99.90;;;;;;5021259;28;20476;-49
2021/09/19 04:18:28;;;;;;;3.90;2.60;;;14.20;99.90;;;;;;5021063;28;20453;-51
2021/09/19 04:20:55;;;;;;;3.10;2.23;;;14.20;99.90;;;;;;5020510;28;20775;-48
2021/09/19 04:23:22;;;;;;;2.90;2.40;;;14.20;99.90;;;;;;5021143;28;20515;-49
2021/09/19 04:25:49;;;;;;;2.90;2.60;;;14.20;99.90;;;;;;5020677;28;20484;-45
2021/09/19 04:28:16;;;;;;;3.20;2.40;;;14.20;99.90;;;;;;5020654;28;20478;-50
2021/09/19 04:30:43;;;;;;;3.50;2.37;;;14.20;99.90;;;;;;5020645;28;20519;-47
2021/09/19 04:33:11;;;;;;;4.33;2.73;;;14.20;99.90;;;;;;5021081;28;20445;-49
2021/09/19 04:35:38;;;;;;;3.30;2.40;;;14.10;99.90;;;;;;5020624;28;20997;-46
2021/09/19 04:38:04;;;;;;;3.47;2.63;;;14.00;99.90;;;;;;5020904;28;20771;-44
2021/09/19 04:40:31;;;;;;;3.73;2.63;;;14.00;99.90;;;;;;5020427;28;20818;-52
2021/09/19 04:42:58;;;;;;;5.07;2.30;;;14.10;99.90;;;;;;5020652;28;20511;-52
2021/09/19 04:45:24;;;;;;;6.43;3.90;;;14.00;99.90;;;;;;5020658;28;20845;-45
2021/09/19 04:47:51;;;;;;;5.10;3.27;;;14.00;99.90;;;;;;5020203;28;20457;-43
2021/09/19 04:50:19;;;;;;;6.23;3.20;;;14.10;99.90;;;;;;5020258;28;20511;-50
2021/09/19 04:52:46;;;;;;;11.23;4.50;;;14.10;99.90;;;;;;5020052;28;20445;-49
2021/09/19 04:55:14;;;;;;;5.10;2.83;;;14.10;99.90;;;;;;5020879;28;20465;-47
2021/09/19 04:57:41;;;;;;;4.60;2.37;;;14.10;99.90;;;;;;5019077;28;20518;-47
2021/09/19 05:00:08;;;;;;;3.97;2.60;;;14.10;99.90;;;;;;5019742;28;20520;-50
2021/09/19 05:02:35;;;;;;;3.37;2.23;;;14.10;99.90;;;;;;5020175;28;20550;-48
2021/09/19 05:05:02;;;;;;;3.13;2.30;;;14.10;99.90;;;;;;5019754;28;20941;-46
2021/09/19 05:07:30;;;;;;;8.20;3.07;;;14.10;99.90;;;;;;5019610;28;20445;-45
2021/09/19 05:09:56;;;;;;;4.03;2.53;;;14.10;99.90;;;;;;5020203;28;20519;-47
2021/09/19 05:12:23;;;;;;;2.60;2.00;;;14.10;99.90;;;;;;5020201;28;20519;-46
2021/09/19 05:14:53;;;;;;;4.93;2.73;;;14.10;99.90;;;;;;5020001;28;20457;-45
2021/09/19 05:17:19;;;;;;;3.53;2.90;;;14.10;99.90;;;;;;5020014;28;20449;-45
2021/09/19 05:19:46;;;;;;;3.87;2.60;;;14.10;99.90;;;;;;5020386;28;20865;-43
2021/09/19 05:22:13;;;;;;;5.40;2.47;;;14.00;99.90;;;;;;5020559;28;20472;-43
2021/09/19 05:24:41;;;;;;;4.03;2.70;;;14.00;99.90;;;;;;5020432;28;20433;-43
2021/09/19 05:27:08;;;;;;;8.23;2.90;;;14.00;99.90;;;;;;5020176;28;20448;-46
2021/09/19 05:29:34;;;;;;;4.10;3.00;;;14.10;99.90;;;;;;5020780;28;20445;-48
2021/09/19 05:32:01;;;;;;;3.97;2.23;;;14.10;99.90;;;;;;5020066;28;20445;-49
2021/09/19 05:34:31;;;;;;;4.13;2.63;;;14.20;99.90;;;;;;5019371;28;20456;-49
2021/09/19 05:36:57;;;;;;;3.77;2.50;;;14.20;99.90;;;;;;5019703;28;20461;-46
2021/09/19 05:39:24;;;;;;;3.93;2.37;;;14.20;99.90;;;;;;5019191;28;20457;-49
2021/09/19 05:41:52;;;;;;;3.23;2.93;;;14.20;99.90;;;;;;5019352;28;20543;-46
2021/09/19 05:44:19;;;;;;;3.30;2.43;;;14.20;99.90;;;;;;5019705;28;20787;-45
2021/09/19 05:46:48;;;;;;;3.73;2.87;;;14.20;99.90;;;;;;5018615;28;20453;-48
2021/09/19 05:49:15;;;;;;;4.10;3.20;;;14.20;99.90;;;;;;5019190;28;20449;-46
2021/09/19 05:51:43;;;;;;;4.10;2.87;;;14.20;99.90;;;;;;5019371;28;20496;-51
2021/09/19 05:54:10;;;;;;;6.20;3.17;;;14.20;99.90;;;;;;5019272;28;20922;-44
2021/09/19 05:56:36;;;;;;;4.93;2.97;;;14.20;99.90;;;;;;5019742;28;20506;-44
2021/09/19 05:59:04;;;;;;;7.83;2.77;;;14.20;99.90;;;;;;5019298;28;20481;-45
2021/09/19 06:01:31;;;;;;;4.07;2.70;;;14.20;99.90;;;;;;5018281;28;20489;-44
2021/09/19 06:03:58;;;;;;;3.50;2.50;;;14.20;99.90;;;;;;5018942;28;20930;-43
2021/09/19 06:06:24;;;;;;;7.60;2.90;;;14.20;99.90;;;;;;5019000;28;20449;-46
2021/09/19 06:08:51;;;;;;;4.00;2.10;;;14.30;99.90;;;;;;5018402;28;20816;-49
2021/09/19 06:11:20;;;;;;;7.97;3.33;;;14.30;99.90;;;;;;5018885;28;20527;-52
2021/09/19 06:13:47;;;;;;;3.83;2.40;;;14.30;99.90;;;;;;5019996;28;20457;-45
2021/09/19 06:16:15;;;;;;;3.67;2.63;;;14.30;99.90;;;;;;5019986;28;20479;-45
2021/09/19 06:18:41;;;;;;;3.73;2.53;;;14.20;99.90;;;;;;5019518;28;20500;-46
2021/09/19 06:21:08;;;;;;;3.90;2.47;;;14.20;99.90;;;;;;5019754;28;20471;-47
2021/09/19 06:23:36;;;;;;;3.60;2.37;;;14.30;99.90;;;;;;5019523;28;20445;-44
2021/09/19 06:26:04;;;;;;;5.00;3.17;;;14.30;99.90;;;;;;5018280;28;20527;-46
2021/09/19 06:28:31;;;;;;;3.60;2.63;;;14.30;99.90;;;;;;5027842;28;20440;-48
2021/09/19 06:31:00;;;;;;;3.23;2.43;;;14.40;99.90;;;;;;5029032;28;20445;-47
2021/09/19 06:33:28;;;;;;;5.97;3.30;;;14.40;99.90;;;;;;5031535;28;20460;-43
2021/09/19 06:35:55;;;;;;;5.83;3.10;;;14.40;99.90;;;;;;5033149;28;20444;-46
2021/09/19 06:38:21;;;;;;;3.87;2.93;;;14.40;99.90;;;;;;5025763;28;20503;-46
2021/09/19 06:43:23;;;;;;;4.90;3.47;;;14.50;99.90;;;;;;5420725;22;20483;-43
2021/09/19 06:45:50;;;;;;;4.43;3.10;;;14.50;99.90;;;;;;5037349;28;20938;-47
2021/09/19 06:48:17;;;;;;;4.80;3.20;;;14.50;99.90;;;;;;5036884;28;20502;-46
2021/09/19 06:50:45;;;;;;;3.40;2.87;;;14.50;99.90;;;;;;5035786;28;20529;-47
2021/09/19 06:53:12;;;;;;;4.63;2.70;;;14.50;99.90;;;;;;5036555;28;20440;-44
2021/09/19 06:55:38;;;;;;;6.07;3.93;;;14.50;99.90;;;;;;5036527;28;20444;-48
2021/09/19 06:58:05;;;;;;;5.70;3.43;;;14.50;99.90;;;;;;5035230;28;20437;-46
2021/09/19 07:00:32;;;;;;;3.93;3.27;;;14.60;99.90;;;;;;5035636;28;20832;-44
2021/09/19 07:02:58;;;;;;;3.97;2.97;;;14.60;99.90;;;;;;5036489;28;20533;-44
2021/09/19 07:05:25;;;;;;;4.97;3.17;;;14.60;99.90;;;;;;5036699;28;20508;-43
2021/09/19 07:07:53;;;;;;;6.67;2.80;;;14.60;99.90;;;;;;5035791;28;20440;-43
2021/09/19 07:10:22;;;;;;;5.00;2.60;;;14.70;99.90;;;;;;5035808;28;20456;-46
2021/09/19 07:12:49;;;;;;;5.03;3.23;;;14.70;99.90;;;;;;5036475;28;20474;-49
2021/09/19 07:15:16;;;;;;;3.67;2.53;;;14.70;99.90;;;;;;5036309;28;20448;-47
2021/09/19 07:17:42;;;;;;;3.20;2.63;;;14.70;99.90;;;;;;5036199;28;20510;-45
2021/09/19 07:20:09;;;;;;;4.03;3.23;;;14.80;99.90;;;;;;5037011;28;20452;-47
2021/09/19 07:22:39;;;;;;;3.43;3.13;;;14.80;99.90;;;;;;5038681;28;20476;-45
2021/09/19 07:25:10;;;;;;;3.37;2.53;;;14.90;99.90;;;;;;5037972;28;20471;-49
2021/09/19 07:27:37;;;;;;;4.83;3.27;;;14.90;99.90;;;;;;5040103;28;20456;-49
2021/09/19 07:30:05;;;;;;;4.50;3.17;;;14.90;99.90;;;;;;5037963;28;20459;-48
2021/09/19 07:32:32;;;;;;;5.80;2.70;;;15.00;99.90;;;;;;5036151;28;20440;-49
2021/09/19 07:34:59;;;;;;;3.53;3.17;;;15.00;99.90;;;;;;5038654;28;20521;-49
2021/09/19 07:37:26;;;;;;;4.27;2.60;;;15.00;99.90;;;;;;5039517;28;20470;-49
2021/09/19 07:39:53;;;;;;;4.23;2.47;;;15.10;99.90;;;;;;5039093;28;20478;-46
2021/09/19 07:42:21;;;;;;;5.47;3.27;;;15.20;99.90;;;;;;5037879;28;20483;-44
2021/09/19 07:44:48;;;;;;;3.63;2.77;;;15.20;99.90;;;;;;5038017;28;20518;-44
2021/09/19 07:47:15;;;;;;;3.60;2.80;;;15.30;99.90;;;;;;5037556;28;20456;-48
2021/09/19 07:49:43;;;;;;;6.50;3.73;;;15.30;99.90;;;;;;5037443;28;20506;-49
2021/09/19 07:52:11;;;;;;;4.60;3.57;;;15.30;99.90;;;;;;5037519;28;20452;-51
2021/09/19 07:54:38;;;;;;;4.87;2.93;;;15.40;99.90;;;;;;5037873;28;20460;-51
2021/09/19 07:57:05;;;;;;;6.20;3.50;;;15.40;99.90;;;;;;5038917;28;20448;-50
2021/09/19 07:59:33;;;;;;;6.13;3.47;;;15.50;99.90;;;;;;5040292;28;20445;-54
2021/09/19 08:02:00;;;;;;;3.90;2.57;;;15.60;99.90;;;;;;5040601;28;20964;-50
2021/09/19 08:04:26;;;;;;;6.53;3.20;;;15.60;99.90;;;;;;5041335;28;20852;-53
2021/09/19 08:06:53;;;;;;;3.80;2.80;;;15.70;99.90;;;;;;5041166;28;20510;-51
2021/09/19 08:09:20;;;;;;;4.63;3.53;;;15.70;99.90;;;;;;5041180;28;20517;-48
2021/09/19 08:11:46;;;;;;;3.70;2.90;;;15.80;99.90;;;;;;5041427;28;20525;-48
2021/09/19 08:14:13;;;;;;;4.10;3.40;;;15.80;99.90;;;;;;5041764;28;20506;-48
2021/09/19 08:16:42;;;;;;;3.80;2.93;;;15.80;99.90;;;;;;5040680;28;20448;-47
2021/09/19 08:19:09;;;;;;;3.23;2.27;;;16.00;99.90;;;;;;5041260;28;20793;-47
2021/09/19 08:21:37;;;;;;;3.67;2.53;;;16.00;99.90;;;;;;5040548;28;20482;-53
2021/09/19 08:24:05;;;;;;;3.57;2.27;;;16.10;99.90;;;;;;5037028;28;20444;-49
2021/09/19 08:26:32;;;;;;;3.27;2.70;;;16.20;99.90;;;;;;5037666;28;20460;-51
2021/09/19 08:28:58;;;;;;;3.67;2.40;;;16.30;99.90;;;;;;5038073;28;20758;-52
2021/09/19 08:31:25;;;;;;;3.80;2.17;;;16.30;99.90;;;;;;5038146;28;20455;-51
2021/09/19 08:33:53;;;;;;;4.43;3.17;;;16.40;99.90;;;;;;5040444;28;20457;-48
2021/09/19 08:36:20;;;;;;;3.50;2.80;;;16.50;99.90;;;;;;5040626;28;20498;-54
2021/09/19 08:38:47;;;;;;;3.10;2.30;;;16.50;99.90;;;;;;5039874;28;20444;-52
2021/09/19 08:41:15;;;;;;;3.83;2.40;;;16.60;99.90;;;;;;5039498;28;20460;-49
2021/09/19 08:43:42;;;;;;;5.70;3.10;;;16.70;99.90;;;;;;5037540;28;20492;-48
2021/09/19 08:46:09;;;;;;;3.67;2.47;;;16.70;99.90;;;;;;5041300;28;20460;-49
2021/09/19 08:48:35;;;;;;;7.60;3.03;;;16.90;99.90;;;;;;5026770;28;20917;-50
2021/09/19 08:51:04;;;;;;;4.27;2.80;;;16.80;99.90;;;;;;5033680;28;20514;-53
2021/09/19 08:53:31;;;;;;;5.00;3.17;;;16.90;99.90;;;;;;5021164;28;20486;-55
2021/09/19 08:55:58;;;;;;;2.90;2.30;;;16.90;99.90;;;;;;5030809;28;20452;-50
2021/09/19 08:58:25;;;;;;;5.60;3.27;;;16.90;99.90;;;;;;5029167;28;20979;-54
2021/09/19 09:00:52;;;;;;;3.60;2.53;;;17.00;99.90;;;;;;5023205;28;20445;-49
2021/09/19 09:03:23;;;;;;;3.23;2.27;;;17.00;99.90;;;;;;5033473;28;20476;-48
2021/09/19 09:05:54;;;;;;;5.47;3.30;;;17.10;99.90;;;;;;5023156;28;20444;-53
2021/09/19 09:08:23;;;;;;;4.90;3.40;;;17.20;99.90;;;;;;5027386;28;20492;-52
2021/09/19 09:10:51;;;;;;;5.43;2.93;;;17.40;99.90;;;;;;5031090;28;20446;-52
2021/09/19 09:13:20;;;;;;;2.80;2.50;;;18.50;99.90;;;;;;5019713;28;20449;-53
2021/09/19 09:15:48;;;;;;;10.10;2.77;;;20.10;99.90;;;;;;5036312;28;20463;-52
2021/09/19 09:18:28;;;;;;;2.67;2.47;;;21.30;99.90;;;;;;5036139;28;20929;-53
2021/09/19 09:20:57;;;;;;;4.57;2.90;;;22.00;97.30;;;;;;5036328;28;20738;-49
2021/09/19 09:23:28;;;;;;;3.93;2.63;;;22.30;94.30;;;;;;5035982;28;20487;-53
2021/09/19 09:26:18;;;;;;;3.80;2.83;;;22.40;92.60;;;;;;5036161;28;20441;-50
2021/09/19 09:28:48;;;;;;;3.60;2.73;;;22.30;91.30;;;;;;5036188;28;20455;-49
2021/09/19 09:31:21;;;;;;;97.40;55.13;;;22.20;90.20;;;;;;5035960;28;20994;-49
2021/09/19 09:33:59;;;;;;;7.07;5.30;;;22.00;90.50;;;;;;5036446;28;20486;-49
2021/09/19 09:36:51;;;;;;;5.53;3.17;;;21.90;88.70;;;;;;5047793;28;20450;-54
2021/09/19 09:39:39;;;;;;;3.73;2.27;;;21.90;90.40;;;;;;5041294;28;20475;-48
2021/09/19 09:42:08;;;;;;;8.60;5.57;;;22.20;84.10;;;;;;5055543;28;20431;-51
2021/09/19 09:44:38;;;;;;;2.60;2.30;;;22.50;83.50;;;;;;5055241;28;20500;-51
2021/09/19 09:47:07;;;;;;;3.03;2.50;;;22.80;81.40;;;;;;5055641;28;21014;-53
2021/09/19 09:49:46;;;;;;;3.80;3.40;;;23.10;80.30;;;;;;5055736;28;20524;-54
2021/09/19 09:52:24;;;;;;;7.50;5.60;;;23.40;78.80;;;;;;5055394;28;20453;-51
2021/09/19 09:54:55;;;;;;;4.40;2.80;;;24.00;76.40;;;;;;5055593;28;20465;-50
2021/09/19 09:57:36;;;;;;;2.77;2.40;;;24.10;73.40;;;;;;5055457;28;20467;-55
2021/09/19 10:00:06;;;;;;;4.53;3.57;;;24.50;72.40;;;;;;5055309;28;20439;-51
2021/09/19 10:02:34;;;;;;;4.87;3.50;;;25.10;71.80;;;;;;5053656;28;20487;-49
2021/09/19 10:05:01;;;;;;;3.77;2.70;;;25.90;67.80;;;;;;5034545;28;20822;-47
2021/09/19 10:07:28;;;;;;;4.33;3.50;;;26.40;61.80;;;;;;5034953;28;20448;-51
2021/09/19 10:09:56;;;;;;;3.47;2.60;;;26.50;60.70;;;;;;5034711;28;20836;-52
2021/09/19 10:12:23;;;;;;;5.50;2.50;;;26.60;59.10;;;;;;5034478;28;20835;-51
2021/09/19 10:14:52;;;;;;;2.73;2.40;;;26.70;57.90;;;;;;5034753;28;20978;-50
2021/09/19 10:17:19;;;;;;;2.67;2.30;;;26.00;57.60;;;;;;5034996;28;20440;-51
2021/09/19 10:19:47;;;;;;;3.20;2.30;;;25.30;58.30;;;;;;5035952;28;20829;-48
2021/09/19 10:22:17;;;;;;;3.90;2.50;;;24.70;59.20;;;;;;5035927;28;20444;-51
2021/09/19 10:24:45;;;;;;;3.20;2.43;;;24.20;58.70;;;;;;5036116;28;20444;-51
2021/09/19 10:27:22;;;;;;;4.33;3.30;;;23.60;60.10;;;;;;5041261;28;20439;-50
2021/09/19 10:29:49;;;;;;;3.17;2.03;;;23.00;60.10;;;;;;5055018;28;20443;-51
2021/09/19 10:32:34;;;;;;;2.57;2.30;;;22.60;60.50;;;;;;5054703;28;20443;-52
2021/09/19 10:35:01;;;;;;;2.80;2.40;;;22.20;62.30;;;;;;5052499;28;20911;-50
2021/09/19 10:37:49;;;;;;;6.20;1.97;;;21.80;65.00;;;;;;5055118;28;20524;-50
2021/09/19 10:40:31;;;;;;;2.80;2.10;;;21.30;64.50;;;;;;5054558;28;20451;-45
2021/09/19 10:43:00;;;;;;;3.47;2.50;;;21.00;65.50;;;;;;5054068;28;21002;-47
2021/09/19 10:45:42;;;;;;;3.10;2.70;;;20.70;65.60;;;;;;5054511;28;20450;-46
2021/09/19 10:48:15;;;;;;;2.50;2.20;;;20.50;67.10;;;;;;5054816;28;20911;-51
2021/09/19 10:50:43;;;;;;;4.00;2.67;;;20.30;67.30;;;;;;5054369;28;20439;-48
2021/09/19 10:53:21;;;;;;;3.80;2.87;;;20.40;70.00;;;;;;5054435;28;20479;-48
2021/09/19 10:55:57;;;;;;;3.47;2.53;;;20.20;68.50;;;;;;5054081;28;20846;-49
2021/09/19 10:58:28;;;;;;;3.90;3.00;;;20.10;69.60;;;;;;5054317;28;20504;-51
2021/09/19 11:01:15;;;;;;;2.50;2.30;;;19.90;69.20;;;;;;5054198;28;20438;-47
2021/09/19 11:03:43;;;;;;;2.60;2.10;;;19.80;68.90;;;;;;5054009;28;20486;-52
2021/09/19 11:06:24;;;;;;;4.67;2.90;;;19.60;70.20;;;;;;5054421;28;20508;-53
2021/09/19 11:08:51;;;;;;;17.73;10.10;;;19.50;71.00;;;;;;5054332;28;20442;-51
2021/09/19 11:11:26;;;;;;;18.33;9.40;;;19.40;69.40;;;;;;5054189;28;20455;-46
2021/09/19 11:14:03;;;;;;;3.80;2.90;;;19.40;71.40;;;;;;5054196;28;20454;-50
2021/09/19 11:16:41;;;;;;;3.33;2.57;;;19.30;69.60;;;;;;5054604;28;20485;-51
2021/09/19 11:19:10;;;;;;;2.70;2.13;;;19.20;71.50;;;;;;5054431;28;20573;-47
2021/09/19 11:21:48;;;;;;;3.50;2.73;;;19.20;72.60;;;;;;5054467;28;20924;-52
2021/09/19 11:24:23;;;;;;;4.00;2.53;;;19.20;72.90;;;;;;5054116;28;20809;-51
2021/09/19 11:26:52;;;;;;;3.03;2.50;;;19.00;73.10;;;;;;5054214;28;20455;-45
2021/09/19 11:29:24;;;;;;;3.37;2.20;;;18.90;74.70;;;;;;5054601;28;20443;-52
2021/09/19 11:31:53;;;;;;;2.53;1.87;;;18.80;74.30;;;;;;5054081;28;20446;-45
2021/09/19 11:34:22;;;;;;;4.53;2.90;;;18.70;75.60;;;;;;5054437;28;20451;-52
2021/09/19 11:36:52;;;;;;;3.07;2.17;;;18.50;76.10;;;;;;5054395;28;20978;-47
2021/09/19 11:39:19;;;;;;;4.37;2.33;;;18.40;77.30;;;;;;5055029;28;20447;-51
2021/09/19 11:41:47;;;;;;;3.47;2.30;;;18.30;78.50;;;;;;5054282;28;20912;-48
2021/09/19 11:44:16;;;;;;;7.00;2.80;;;18.30;79.10;;;;;;5054360;28;20550;-48
2021/09/19 11:46:45;;;;;;;3.03;2.23;;;18.20;80.10;;;;;;5054466;28;20834;-45
2021/09/19 11:49:13;;;;;;;3.23;2.43;;;18.10;80.00;;;;;;5054534;28;20455;-52
2021/09/19 11:51:41;;;;;;;4.93;3.00;;;18.00;80.70;;;;;;5054076;28;20455;-49
2021/09/19 11:54:12;;;;;;;4.60;3.17;;;17.90;82.50;;;;;;5054069;28;20452;-48
2021/09/19 11:56:43;;;;;;;4.27;3.10;;;18.00;82.30;;;;;;5054752;28;20451;-47
2021/09/19 11:59:13;;;;;;;4.33;3.00;;;17.90;83.30;;;;;;5054559;28;20447;-45
2021/09/19 12:01:40;;;;;;;5.60;4.83;;;17.90;85.30;;;;;;5054257;28;20447;-45
2021/09/19 12:04:09;;;;;;;4.00;3.23;;;17.90;84.70;;;;;;5054243;28;20489;-53
2021/09/19 12:06:37;;;;;;;3.60;3.03;;;17.90;85.90;;;;;;5056078;28;20450;-50
2021/09/19 12:09:10;;;;;;;3.10;2.53;;;17.80;86.80;;;;;;5057855;28;20908;-52
2021/09/19 12:11:46;;;;;;;5.83;2.90;;;17.90;87.30;;;;;;5057903;28;20546;-50
2021/09/19 12:14:14;;;;;;;5.93;3.50;;;17.90;87.30;;;;;;5057525;28;20474;-50
2021/09/19 12:16:41;;;;;;;5.40;2.77;;;17.90;87.50;;;;;;5058120;28;20846;-48
2021/09/19 12:19:20;;;;;;;4.73;3.47;;;17.90;88.80;;;;;;5057833;28;20455;-49
2021/09/19 12:21:55;;;;;;;3.43;3.13;;;17.90;89.00;;;;;;5057761;28;20869;-50
2021/09/19 12:24:22;;;;;;;5.67;4.27;;;18.00;88.70;;;;;;5057604;28;20547;-51
2021/09/19 12:26:49;;;;;;;5.97;4.33;;;18.00;90.10;;;;;;5057752;28;20455;-51
2021/09/19 12:29:16;;;;;;;3.33;2.77;;;18.00;88.90;;;;;;5057616;28;20462;-48
2021/09/19 12:31:45;;;;;;;3.33;2.77;;;18.00;90.20;;;;;;5057243;28;20538;-46
2021/09/19 12:34:15;;;;;;;3.97;3.23;;;18.00;90.30;;;;;;5057586;28;20562;-49
2021/09/19 12:36:45;;;;;;;4.60;2.60;;;18.00;90.30;;;;;;5057276;28;20447;-50
2021/09/19 12:39:16;;;;;;;4.00;2.83;;;18.00;90.40;;;;;;5057195;28;20455;-47
2021/09/19 12:41:44;;;;;;;5.03;2.73;;;17.90;90.70;;;;;;5057188;28;20900;-49
2021/09/19 12:44:14;;;;;;;3.57;2.40;;;17.90;90.50;;;;;;5056754;28;21002;-47
2021/09/19 12:46:45;;;;;;;2.90;2.63;;;17.90;89.80;;;;;;5056965;28;20460;-50
2021/09/19 12:49:18;;;;;;;3.30;2.73;;;17.90;90.30;;;;;;5057346;28;20832;-45
2021/09/19 12:52:01;;;;;;;3.60;2.23;;;17.90;90.40;;;;;;5056591;28;20912;-52
2021/09/19 12:54:28;;;;;;;4.00;3.10;;;17.90;90.50;;;;;;5056978;28;20416;-50